Date,TemperatureHighF,TemperatureAvgF,TemperatureLowF,DewpointHighF,DewpointAvgF,DewpointLowF,HumidityHigh,HumidityAvg,HumidityLow,PressureMaxIn,PressureMinIn,WindSpeedMaxMPH,WindSpeedAvgMPH,GustSpeedMaxMPH,PrecipitationSumIn
2013-9-1,74,72,70,73,70,67,96,93,90,29.88,29.78,14,3,19,0.39
2013-9-2,79,72,69,75,70,68,97,93,83,29.87,29.71,11,2,17,0.30
2013-9-3,82,75,69,72,69,60,96,82,66,29.80,29.68,12,3,17,0.00
2013-9-4,82,72,62,62,59,57,85,65,45,29.91,29.79,13,4,18,0.00
2013-9-5,69,64,57,63,58,49,92,81,72,30.14,29.85,13,3,16,0.08
2013-9-6,70,60,51,49,46,41,75,59,38,30.24,30.08,10,3,14,0.00
2013-9-7,80,68,55,59,52,46,77,60,39,30.08,29.84,13,4,17,0.00
2013-9-8,76,67,57,63,54,42,81,63,38,30.08,29.73,18,5,28,0.00
2013-9-9,71,61,49,54,47,42,78,62,42,30.23,30.09,13,4,16,0.00
2013-9-10,75,68,59,70,63,52,93,84,77,30.16,30.02,15,6,23,0.06
2013-9-11,95,80,68,79,72,66,96,78,49,30.07,29.93,12,6,20,0.00
2013-9-12,87,77,68,75,71,66,93,81,65,29.96,29.67,18,6,24,0.51
2013-9-13,73,67,61,69,64,56,97,92,82,29.75,29.57,12,2,17,0.26
2013-9-14,68,63,58,57,55,51,83,75,65,30.05,29.75,16,4,17,0.00
2013-9-15,73,62,52,57,52,47,91,70,48,30.16,30.04,9,2,15,0.00
2013-9-16,68,61,51,55,51,40,82,70,59,30.24,30.00,15,3,24,0.01
2013-9-17,58,52,44,46,41,37,80,67,49,30.41,30.25,14,4,21,0.00
2013-9-18,74,61,48,52,47,44,87,63,36,30.31,30.13,9,3,15,0.00
2013-9-19,69,60,52,58,53,48,89,78,58,30.13,30.03,8,1,9,0.00
2013-9-20,66,61,54,60,57,52,94,87,74,30.09,30.00,10,1,10,0.00
2013-9-21,75,67,58,65,61,56,95,83,65,30.03,29.74,17,6,23,0.00
2013-9-22,72,66,56,67,58,47,95,77,54,29.82,29.61,18,6,23,0.24
2013-9-23,63,55,49,47,44,41,79,65,52,29.99,29.82,16,5,20,0.00
2013-9-24,66,55,46,50,44,40,82,68,45,29.98,29.81,15,4,19,0.00
2013-9-25,62,56,49,51,48,44,84,75,64,29.97,29.87,8,2,14,0.00
2013-9-26,64,58,55,53,51,48,86,76,64,30.12,29.97,10,2,15,0.00
2013-9-27,65,59,54,56,53,50,86,79,73,30.25,30.12,15,4,18,0.00
2013-9-28,65,58,53,59,54,50,94,87,73,30.32,30.24,8,1,13,0.00
2013-9-29,61,56,51,56,53,50,97,90,78,30.27,30.12,8,1,11,0.00
2013-9-30,63,56,51,56,53,49,96,89,76,30.12,29.96,7,1,9,0.01